sensor_id;sensor_type;location;lat;lon;timestamp;pressure;altitude;pressure_sealevel;temperature;humidity
36304;BME280;22335;49.800;8.596;2023-02-10T00:03:28;102473.09;;;4.87;43.41
36304;BME280;22335;49.800;8.596;2023-02-10T00:10:13;102478.91;;;4.84;43.54
36304;BME280;22335;49.800;8.596;2023-02-10T00:16:57;102487.09;;;4.91;43.32
36304;BME280;22335;49.800;8.596;2023-02-10T00:23:43;102432.94;;;4.48;43.40
36304;BME280;22335;49.800;8.596;2023-02-10T00:30:28;102508.34;;;4.87;43.86
36304;BME280;22335;49.800;8.596;2023-02-10T00:37:12;102431.13;;;4.33;43.68
36304;BME280;22335;49.800;8.596;2023-02-10T00:43:55;102508.97;;;4.89;43.53
36304;BME280;22335;49.800;8.596;2023-02-10T00:50:40;102479.78;;;4.63;43.89
36304;BME280;22335;49.800;8.596;2023-02-10T00:57:23;102528.59;;;4.91;43.63
36304;BME280;22335;49.800;8.596;2023-02-10T01:04:07;102534.34;;;4.81;43.75
36304;BME280;22335;49.800;8.596;2023-02-10T01:10:59;102456.91;;;4.23;44.03
36304;BME280;22335;49.800;8.596;2023-02-10T01:17:43;102477.28;;;4.40;43.73
36304;BME280;22335;49.800;8.596;2023-02-10T01:24:29;102505.97;;;4.56;43.75
36304;BME280;22335;49.800;8.596;2023-02-10T01:31:15;102538.22;;;4.72;44.08
36304;BME280;22335;49.800;8.596;2023-02-10T01:38:00;102539.91;;;4.73;43.68
36304;BME280;22335;49.800;8.596;2023-02-10T01:45:11;102554.13;;;4.75;44.04
36304;BME280;22335;49.800;8.596;2023-02-10T01:52:03;102530.56;;;4.54;44.26
36304;BME280;22335;49.800;8.596;2023-02-10T01:58:48;102560.03;;;4.64;43.95
36304;BME280;22335;49.800;8.596;2023-02-10T02:05:34;102548.56;;;4.62;43.66
36304;BME280;22335;49.800;8.596;2023-02-10T02:12:24;102556.81;;;4.54;44.01
36304;BME280;22335;49.800;8.596;2023-02-10T02:19:35;102558.88;;;4.52;44.08
36304;BME280;22335;49.800;8.596;2023-02-10T02:27:27;102570.03;;;4.42;44.52
36304;BME280;22335;49.800;8.596;2023-02-10T02:34:37;102575.75;;;4.32;44.16
36304;BME280;22335;49.800;8.596;2023-02-10T02:41:23;102581.44;;;4.37;44.06
36304;BME280;22335;49.800;8.596;2023-02-10T02:48:18;102583.06;;;4.32;44.34
36304;BME280;22335;49.800;8.596;2023-02-10T02:55:18;102554.88;;;4.11;44.56
36304;BME280;22335;49.800;8.596;2023-02-10T03:02:09;102572.78;;;4.27;44.08
36304;BME280;22335;49.800;8.596;2023-02-10T03:08:54;102590.56;;;4.73;43.48
36304;BME280;22335;49.800;8.596;2023-02-10T03:15:39;102592.50;;;4.21;44.17
36304;BME280;22335;49.800;8.596;2023-02-10T03:22:23;102438.16;;;3.34;44.01
36304;BME280;22335;49.800;8.596;2023-02-10T03:29:07;102590.66;;;4.22;44.23
36304;BME280;22335;49.800;8.596;2023-02-10T03:35:53;102575.63;;;4.19;44.41
36304;BME280;22335;49.800;8.596;2023-02-10T03:42:38;102590.19;;;4.18;44.41
36304;BME280;22335;49.800;8.596;2023-02-10T04:04:25;102597.13;;;4.06;43.97
36304;BME280;22335;49.800;8.596;2023-02-10T04:11:09;102610.38;;;4.15;44.35
36304;BME280;22335;49.800;8.596;2023-02-10T04:17:54;102608.66;;;4.14;44.62
36304;BME280;22335;49.800;8.596;2023-02-10T04:24:39;102574.97;;;4.02;44.98
36304;BME280;22335;49.800;8.596;2023-02-10T04:31:22;102476.97;;;3.11;45.54
36304;BME280;22335;49.800;8.596;2023-02-10T04:38:06;102552.06;;;3.39;45.82
36304;BME280;22335;49.800;8.596;2023-02-10T04:44:51;102622.03;;;3.86;45.42
36304;BME280;22335;49.800;8.596;2023-02-10T04:51:35;102566.06;;;3.57;45.60
36304;BME280;22335;49.800;8.596;2023-02-10T04:58:18;102569.69;;;3.64;45.77
36304;BME280;22335;49.800;8.596;2023-02-10T05:05:05;102543.19;;;3.60;45.81
36304;BME280;22335;49.800;8.596;2023-02-10T05:11:49;102656.19;;;4.32;45.64
36304;BME280;22335;49.800;8.596;2023-02-10T05:18:33;102652.50;;;4.18;45.95
36304;BME280;22335;49.800;8.596;2023-02-10T05:25:18;102556.63;;;3.68;46.02
36304;BME280;22335;49.800;8.596;2023-02-10T05:32:02;102654.41;;;4.24;46.30
36304;BME280;22335;49.800;8.596;2023-02-10T05:38:46;102660.84;;;4.38;46.28
36304;BME280;22335;49.800;8.596;2023-02-10T05:45:46;102656.34;;;4.45;46.33
36304;BME280;22335;49.800;8.596;2023-02-10T05:52:30;102673.69;;;4.66;46.52
36304;BME280;22335;49.800;8.596;2023-02-10T05:59:14;102685.84;;;4.70;46.68
36304;BME280;22335;49.800;8.596;2023-02-10T06:05:58;102676.94;;;4.76;46.63
36304;BME280;22335;49.800;8.596;2023-02-10T06:12:43;102684.97;;;4.84;46.84
36304;BME280;22335;49.800;8.596;2023-02-10T06:19:27;102611.50;;;4.43;47.11
36304;BME280;22335;49.800;8.596;2023-02-10T06:26:12;102668.88;;;4.82;47.70
36304;BME280;22335;49.800;8.596;2023-02-10T06:32:55;102694.63;;;4.72;47.68
36304;BME280;22335;49.800;8.596;2023-02-10T06:39:39;102692.16;;;4.77;47.63
36304;BME280;22335;49.800;8.596;2023-02-10T06:46:25;102637.91;;;4.34;47.65
36304;BME280;22335;49.800;8.596;2023-02-10T06:53:09;102691.25;;;4.70;47.80
36304;BME280;22335;49.800;8.596;2023-02-10T06:59:52;102635.50;;;3.95;48.55
36304;BME280;22335;49.800;8.596;2023-02-10T07:06:37;102692.16;;;4.11;48.77
36304;BME280;22335;49.800;8.596;2023-02-10T07:13:21;102637.34;;;3.64;49.08
36304;BME280;22335;49.800;8.596;2023-02-10T07:20:05;102613.19;;;3.25;49.57
36304;BME280;22335;49.800;8.596;2023-02-10T07:26:50;102672.16;;;3.67;49.58
36304;BME280;22335;49.800;8.596;2023-02-10T07:33:34;102702.13;;;3.81;49.55
36304;BME280;22335;49.800;8.596;2023-02-10T07:40:17;102717.75;;;3.93;49.97
36304;BME280;22335;49.800;8.596;2023-02-10T07:47:02;102718.03;;;4.13;49.78
36304;BME280;22335;49.800;8.596;2023-02-10T07:53:46;102718.88;;;4.44;49.53
36304;BME280;22335;49.800;8.596;2023-02-10T08:00:29;102722.94;;;4.69;49.09
36304;BME280;22335;49.800;8.596;2023-02-10T08:07:14;102728.13;;;4.85;49.28
36304;BME280;22335;49.800;8.596;2023-02-10T08:13:58;102742.13;;;5.04;48.61
36304;BME280;22335;49.800;8.596;2023-02-10T08:20:43;102749.00;;;5.21;48.97
36304;BME280;22335;49.800;8.596;2023-02-10T08:27:28;102753.31;;;5.37;48.67
36304;BME280;22335;49.800;8.596;2023-02-10T08:34:14;102771.34;;;5.45;48.63
36304;BME280;22335;49.800;8.596;2023-02-10T08:40:58;102748.56;;;5.61;48.18
36304;BME280;22335;49.800;8.596;2023-02-10T08:47:43;102754.44;;;5.64;48.48
36304;BME280;22335;49.800;8.596;2023-02-10T08:54:27;102768.22;;;5.69;48.37
36304;BME280;22335;49.800;8.596;2023-02-10T09:01:13;102774.97;;;5.73;48.65
36304;BME280;22335;49.800;8.596;2023-02-10T09:07:58;102785.69;;;5.82;48.52
36304;BME280;22335;49.800;8.596;2023-02-10T09:14:42;102782.06;;;5.74;48.43
36304;BME280;22335;49.800;8.596;2023-02-10T09:21:26;102714.13;;;5.18;48.86
36304;BME280;22335;49.800;8.596;2023-02-10T09:28:26;102789.78;;;5.49;48.88
36304;BME280;22335;49.800;8.596;2023-02-10T09:35:10;102789.72;;;5.43;49.44
36304;BME280;22335;49.800;8.596;2023-02-10T09:41:57;102782.19;;;5.45;50.03
36304;BME280;22335;49.800;8.596;2023-02-10T09:48:55;102782.34;;;5.58;50.31
36304;BME280;22335;49.800;8.596;2023-02-10T09:55:49;102781.41;;;5.72;49.91
36304;BME280;22335;49.800;8.596;2023-02-10T10:02:43;102775.88;;;5.81;49.73
36304;BME280;22335;49.800;8.596;2023-02-10T10:09:35;102787.78;;;6.01;50.22
36304;BME280;22335;49.800;8.596;2023-02-10T10:16:40;102787.56;;;6.03;49.89
36304;BME280;22335;49.800;8.596;2023-02-10T10:23:46;102797.50;;;6.17;49.35
36304;BME280;22335;49.800;8.596;2023-02-10T10:30:42;102787.16;;;6.34;49.57
36304;BME280;22335;49.800;8.596;2023-02-10T10:37:29;102790.22;;;6.59;48.94
36304;BME280;22335;49.800;8.596;2023-02-10T10:44:16;102788.81;;;6.63;48.95
36304;BME280;22335;49.800;8.596;2023-02-10T10:51:04;102788.44;;;6.73;49.29
36304;BME280;22335;49.800;8.596;2023-02-10T10:57:47;102728.03;;;6.42;48.83
36304;BME280;22335;49.800;8.596;2023-02-10T11:04:31;102670.97;;;6.01;48.81
36304;BME280;22335;49.800;8.596;2023-02-10T11:11:17;102758.69;;;6.64;49.10
36304;BME280;22335;49.800;8.596;2023-02-10T11:18:20;102699.81;;;6.43;48.92
36304;BME280;22335;49.800;8.596;2023-02-10T11:25:24;102754.63;;;6.95;48.64
36304;BME280;22335;49.800;8.596;2023-02-10T11:32:18;102688.03;;;6.78;48.83
36304;BME280;22335;49.800;8.596;2023-02-10T11:39:04;102741.53;;;7.32;48.46
36304;BME280;22335;49.800;8.596;2023-02-10T11:45:58;102735.09;;;7.59;48.21
36304;BME280;22335;49.800;8.596;2023-02-10T11:52:45;102731.72;;;7.84;47.55
36304;BME280;22335;49.800;8.596;2023-02-10T11:59:34;102730.66;;;7.98;47.46
36304;BME280;22335;49.800;8.596;2023-02-10T12:06:25;102720.59;;;8.12;46.66
36304;BME280;22335;49.800;8.596;2023-02-10T12:13:26;102723.47;;;8.30;46.33
36304;BME280;22335;49.800;8.596;2023-02-10T12:20:26;102656.88;;;7.86;46.15
36304;BME280;22335;49.800;8.596;2023-02-10T12:27:21;102718.88;;;8.24;46.21
36304;BME280;22335;49.800;8.596;2023-02-10T12:34:19;102594.91;;;7.55;46.36
36304;BME280;22335;49.800;8.596;2023-02-10T12:41:18;102712.38;;;8.25;46.15
36304;BME280;22335;49.800;8.596;2023-02-10T12:48:18;102705.00;;;8.46;46.39
36304;BME280;22335;49.800;8.596;2023-02-10T12:55:15;102695.09;;;8.58;45.34
36304;BME280;22335;49.800;8.596;2023-02-10T13:02:04;102603.97;;;8.21;45.32
36304;BME280;22335;49.800;8.596;2023-02-10T13:08:55;102635.38;;;8.43;45.71
36304;BME280;22335;49.800;8.596;2023-02-10T13:15:48;102631.78;;;8.49;45.00
36304;BME280;22335;49.800;8.596;2023-02-10T13:22:40;102684.63;;;8.93;45.21
36304;BME280;22335;49.800;8.596;2023-02-10T13:29:33;102672.34;;;9.09;44.93
36304;BME280;22335;49.800;8.596;2023-02-10T13:36:25;102567.28;;;8.62;44.50
36304;BME280;22335;49.800;8.596;2023-02-10T13:43:26;102450.25;;;7.90;44.55
36304;BME280;22335;49.800;8.596;2023-02-10T13:50:20;102657.16;;;9.20;44.84
36304;BME280;22335;49.800;8.596;2023-02-10T13:57:22;102651.72;;;9.45;44.40
36304;BME280;22335;49.800;8.596;2023-02-10T14:04:26;102586.69;;;8.78;44.59
36304;BME280;22335;49.800;8.596;2023-02-10T14:11:34;102648.53;;;9.23;45.45
36304;BME280;22335;49.800;8.596;2023-02-10T14:18:25;102648.63;;;9.35;44.58
36304;BME280;22335;49.800;8.596;2023-02-10T14:25:18;102602.19;;;9.10;44.66
36304;BME280;22335;49.800;8.596;2023-02-10T14:32:05;102650.66;;;9.46;44.62
36304;BME280;22335;49.800;8.596;2023-02-10T14:38:53;102585.16;;;9.14;44.25
36304;BME280;22335;49.800;8.596;2023-02-10T14:45:44;102631.28;;;9.47;44.85
36304;BME280;22335;49.800;8.596;2023-02-10T14:52:30;102624.09;;;9.53;44.46
36304;BME280;22335;49.800;8.596;2023-02-10T14:59:22;102598.13;;;9.44;44.59
36304;BME280;22335;49.800;8.596;2023-02-10T15:06:07;102630.72;;;9.64;44.57
36304;BME280;22335;49.800;8.596;2023-02-10T15:12:51;102575.06;;;9.40;44.12
36304;BME280;22335;49.800;8.596;2023-02-10T15:19:36;102591.25;;;9.60;44.87
36304;BME280;22335;49.800;8.596;2023-02-10T15:26:24;102620.88;;;10.00;44.23
36304;BME280;22335;49.800;8.596;2023-02-10T15:33:15;102618.47;;;10.10;44.43
36304;BME280;22335;49.800;8.596;2023-02-10T15:40:17;102613.03;;;10.22;44.29
36304;BME280;22335;49.800;8.596;2023-02-10T15:47:20;102616.13;;;10.32;44.38
36304;BME280;22335;49.800;8.596;2023-02-10T15:54:05;102611.75;;;10.43;44.22
36304;BME280;22335;49.800;8.596;2023-02-10T16:00:55;102607.38;;;10.42;43.82
36304;BME280;22335;49.800;8.596;2023-02-10T16:07:39;102611.09;;;10.47;44.03
36304;BME280;22335;49.800;8.596;2023-02-10T16:14:22;102533.47;;;10.11;43.81
36304;BME280;22335;49.800;8.596;2023-02-10T16:21:08;102600.59;;;10.44;43.79
36304;BME280;22335;49.800;8.596;2023-02-10T16:27:55;102494.31;;;9.81;43.70
36304;BME280;22335;49.800;8.596;2023-02-10T16:34:39;102600.38;;;10.46;43.67
36304;BME280;22335;49.800;8.596;2023-02-10T16:41:24;102603.72;;;10.48;43.55
36304;BME280;22335;49.800;8.596;2023-02-10T16:48:08;102603.47;;;10.49;43.48
36304;BME280;22335;49.800;8.596;2023-02-10T16:54:54;102607.44;;;10.53;43.38
36304;BME280;22335;49.800;8.596;2023-02-10T17:01:38;102603.94;;;10.46;43.36
36304;BME280;22335;49.800;8.596;2023-02-10T17:08:22;102566.28;;;10.11;43.16
36304;BME280;22335;49.800;8.596;2023-02-10T17:15:06;102638.34;;;10.54;42.96
36304;BME280;22335;49.800;8.596;2023-02-10T17:21:52;102577.66;;;10.08;43.02
36304;BME280;22335;49.800;8.596;2023-02-10T17:28:35;102646.66;;;10.47;42.78
36304;BME280;22335;49.800;8.596;2023-02-10T17:35:21;102625.06;;;10.39;43.36
36304;BME280;22335;49.800;8.596;2023-02-10T17:42:07;102632.91;;;10.35;43.11
36304;BME280;22335;49.800;8.596;2023-02-10T17:48:50;102634.28;;;10.26;43.04
36304;BME280;22335;49.800;8.596;2023-02-10T17:55:34;102646.56;;;10.17;43.20
36304;BME280;22335;49.800;8.596;2023-02-10T18:02:22;102634.63;;;9.93;43.74
36304;BME280;22335;49.800;8.596;2023-02-10T18:09:06;102604.22;;;9.21;43.96
36304;BME280;22335;49.800;8.596;2023-02-10T18:15:50;102647.16;;;9.39;43.88
36304;BME280;22335;49.800;8.596;2023-02-10T18:22:37;102568.72;;;8.71;44.40
36304;BME280;22335;49.800;8.596;2023-02-10T18:29:22;102644.88;;;9.04;44.05
36304;BME280;22335;49.800;8.596;2023-02-10T18:36:07;102643.56;;;8.82;44.37
36304;BME280;22335;49.800;8.596;2023-02-10T18:42:53;102580.88;;;8.23;44.55
36304;BME280;22335;49.800;8.596;2023-02-10T18:49:37;102654.47;;;8.82;43.93
36304;BME280;22335;49.800;8.596;2023-02-10T18:56:21;102673.47;;;8.57;44.80
36304;BME280;22335;49.800;8.596;2023-02-10T19:03:06;102662.19;;;8.53;44.77
36304;BME280;22335;49.800;8.596;2023-02-10T19:09:50;102660.94;;;8.42;45.03
36304;BME280;22335;49.800;8.596;2023-02-10T19:16:34;102526.00;;;7.55;45.07
36304;BME280;22335;49.800;8.596;2023-02-10T19:23:19;102653.66;;;8.23;44.64
36304;BME280;22335;49.800;8.596;2023-02-10T19:30:03;102646.78;;;8.07;44.80
36304;BME280;22335;49.800;8.596;2023-02-10T19:36:47;102649.97;;;7.97;45.28
36304;BME280;22335;49.800;8.596;2023-02-10T19:43:34;102568.81;;;7.28;45.88
36304;BME280;22335;49.800;8.596;2023-02-10T19:50:17;102644.38;;;7.66;46.71
36304;BME280;22335;49.800;8.596;2023-02-10T19:57:01;102638.06;;;7.78;46.44
36304;BME280;22335;49.800;8.596;2023-02-10T20:03:48;102563.38;;;7.28;46.32
36304;BME280;22335;49.800;8.596;2023-02-10T20:10:34;102437.38;;;6.08;46.62
36304;BME280;22335;49.800;8.596;2023-02-10T20:17:17;102623.19;;;7.68;47.24
36304;BME280;22335;49.800;8.596;2023-02-10T20:24:03;102515.03;;;7.03;47.30
36304;BME280;22335;49.800;8.596;2023-02-10T20:30:48;102599.34;;;7.56;46.84
36304;BME280;22335;49.800;8.596;2023-02-10T20:37:32;102610.84;;;7.52;47.71
36304;BME280;22335;49.800;8.596;2023-02-10T20:44:17;102610.22;;;7.56;47.58
36304;BME280;22335;49.800;8.596;2023-02-10T20:51:03;102639.75;;;7.66;47.45
36304;BME280;22335;49.800;8.596;2023-02-10T20:57:49;102633.69;;;7.57;47.59
36304;BME280;22335;49.800;8.596;2023-02-10T21:04:34;102633.88;;;7.69;47.77
36304;BME280;22335;49.800;8.596;2023-02-10T21:11:19;102635.09;;;7.80;47.23
36304;BME280;22335;49.800;8.596;2023-02-10T21:18:04;102634.06;;;7.88;47.11
36304;BME280;22335;49.800;8.596;2023-02-10T21:24:49;102625.69;;;7.82;46.67
36304;BME280;22335;49.800;8.596;2023-02-10T21:31:33;102631.13;;;7.82;46.63
36304;BME280;22335;49.800;8.596;2023-02-10T21:38:18;102624.63;;;7.77;47.49
36304;BME280;22335;49.800;8.596;2023-02-10T21:45:03;102591.16;;;7.43;47.35
36304;BME280;22335;49.800;8.596;2023-02-10T21:51:48;102630.09;;;7.77;47.11
36304;BME280;22335;49.800;8.596;2023-02-10T21:58:33;102622.13;;;7.82;47.58
36304;BME280;22335;49.800;8.596;2023-02-10T22:05:18;102605.97;;;7.94;47.37
36304;BME280;22335;49.800;8.596;2023-02-10T22:12:03;102565.16;;;7.67;47.58
36304;BME280;22335;49.800;8.596;2023-02-10T22:18:48;102594.91;;;7.69;47.40
36304;BME280;22335;49.800;8.596;2023-02-10T22:25:32;102604.34;;;7.46;48.42
36304;BME280;22335;49.800;8.596;2023-02-10T22:32:16;102608.75;;;7.60;48.22
36304;BME280;22335;49.800;8.596;2023-02-10T22:38:59;102609.78;;;7.66;47.36
36304;BME280;22335;49.800;8.596;2023-02-10T22:45:50;102482.59;;;6.75;48.09
36304;BME280;22335;49.800;8.596;2023-02-10T22:52:34;102607.69;;;7.61;48.16
36304;BME280;22335;49.800;8.596;2023-02-10T22:59:18;102604.56;;;7.58;47.79
36304;BME280;22335;49.800;8.596;2023-02-10T23:06:03;102606.25;;;7.32;48.47
36304;BME280;22335;49.800;8.596;2023-02-10T23:12:47;102554.78;;;6.91;48.36
36304;BME280;22335;49.800;8.596;2023-02-10T23:19:30;102600.59;;;7.27;48.83
36304;BME280;22335;49.800;8.596;2023-02-10T23:26:20;102589.50;;;7.02;49.08
36304;BME280;22335;49.800;8.596;2023-02-10T23:33:04;102596.63;;;6.90;49.69
36304;BME280;22335;49.800;8.596;2023-02-10T23:39:49;102590.34;;;7.03;49.91
36304;BME280;22335;49.800;8.596;2023-02-10T23:46:35;102582.38;;;7.21;48.95
36304;BME280;22335;49.800;8.596;2023-02-10T23:53:18;102547.44;;;7.11;48.89
